createdAt,value
2023-05-11T00:00:20.582Z,11.39
2023-05-11T00:02:24.761Z,11.41
2023-05-11T00:04:27.652Z,11.42
2023-05-11T00:06:30.594Z,11.43
2023-05-11T00:08:33.375Z,11.45
2023-05-11T00:10:36.197Z,11.46
2023-05-11T00:12:38.991Z,11.14
2023-05-11T00:14:41.732Z,11.44
2023-05-11T00:16:44.504Z,11.44
2023-05-11T00:18:49.181Z,11.44
2023-05-11T00:20:51.998Z,11.44
2023-05-11T00:22:55.005Z,11.42
2023-05-11T00:24:57.908Z,11.41
2023-05-11T00:27:00.918Z,11.44
2023-05-11T00:29:03.618Z,11.45
2023-05-11T00:31:06.588Z,11.45
2023-05-11T00:33:09.323Z,11.42
2023-05-11T00:35:13.858Z,11.04
2023-05-11T00:37:16.663Z,11.43
2023-05-11T00:39:19.454Z,11.45
2023-05-11T00:41:22.601Z,11.42
2023-05-11T00:43:25.622Z,11.36
2023-05-11T00:45:28.874Z,11.38
2023-05-11T00:47:31.975Z,11.40
2023-05-11T00:49:34.995Z,11.09
2023-05-11T00:51:39.496Z,11.33
2023-05-11T00:53:42.401Z,11.33
2023-05-11T00:55:45.798Z,11.33
2023-05-11T00:57:48.675Z,11.32
2023-05-11T00:59:52.615Z,11.05
2023-05-11T01:01:56.631Z,11.31
2023-05-11T01:03:59.473Z,11.30
2023-05-11T01:06:09.353Z,11.30
2023-05-11T01:08:18.622Z,11.30
2023-05-11T01:10:27.444Z,11.32
2023-05-11T01:12:39.354Z,11.31
2023-05-11T01:14:50.069Z,11.04
2023-05-11T01:16:58.283Z,11.27
2023-05-11T01:19:06.517Z,11.21
2023-05-11T01:21:11.859Z,11.23
2023-05-11T01:23:44.931Z,11.23
2023-05-11T01:26:08.568Z,11.16
2023-05-11T01:28:30.056Z,11.22
2023-05-11T01:30:40.406Z,11.21
2023-05-11T01:32:45.865Z,11.18
2023-05-11T01:34:51.542Z,11.18
2023-05-11T01:36:58.513Z,11.18
2023-05-11T01:39:05.392Z,11.07
2023-05-11T01:41:13.378Z,11.22
2023-05-11T01:43:22.353Z,11.21
2023-05-11T01:45:26.992Z,10.62
2023-05-11T01:47:32.739Z,11.18
2023-05-11T01:49:39.649Z,11.18
2023-05-11T01:51:45.039Z,11.20
2023-05-11T01:53:49.060Z,11.19
2023-05-11T01:55:53.849Z,10.94
2023-05-11T01:57:57.396Z,11.19
2023-05-11T02:00:01.822Z,11.20
2023-05-11T02:02:05.557Z,11.17
2023-05-11T02:04:10.829Z,11.16
2023-05-11T02:06:16.352Z,10.72
2023-05-11T02:08:20.903Z,11.14
2023-05-11T02:10:27.441Z,11.12
2023-05-11T02:12:33.689Z,11.07
2023-05-11T02:14:39.245Z,11.12
2023-05-11T02:16:42.494Z,11.07
2023-05-11T02:18:45.855Z,11.05
2023-05-11T02:20:51.786Z,10.91
2023-05-11T02:22:57.003Z,10.91
2023-05-11T02:24:59.826Z,11.11
2023-05-11T02:27:02.845Z,11.12
2023-05-11T02:29:05.773Z,11.14
2023-05-11T02:31:13.417Z,11.15
2023-05-11T02:33:22.290Z,11.12
2023-05-11T02:35:29.323Z,11.13
2023-05-11T02:37:36.158Z,11.14
2023-05-11T02:39:41.351Z,11.07
2023-05-11T02:41:47.501Z,11.11
2023-05-11T02:43:53.144Z,11.08
2023-05-11T02:46:02.216Z,10.81
2023-05-11T02:48:09.714Z,10.80
2023-05-11T02:50:14.161Z,10.77
2023-05-11T02:52:19.842Z,10.80
2023-05-11T02:54:25.494Z,10.81
2023-05-11T03:00:18.077Z,10.69
2023-05-11T03:02:23.015Z,10.76
2023-05-11T03:04:26.534Z,10.49
2023-05-11T03:06:29.710Z,10.65
2023-05-11T03:08:32.999Z,10.78
2023-05-11T03:10:37.725Z,10.83
2023-05-11T03:12:40.849Z,10.84
2023-05-11T03:14:46.126Z,10.92
2023-05-11T03:16:49.888Z,10.90
2023-05-11T03:18:56.277Z,10.82
2023-05-11T03:21:01.706Z,10.91
2023-05-11T03:23:07.609Z,10.98
2023-05-11T03:25:12.123Z,10.97
2023-05-11T03:27:17.315Z,10.94
2023-05-11T03:29:21.306Z,10.91
2023-05-11T03:31:24.466Z,10.91
2023-05-11T03:33:27.804Z,10.93
2023-05-11T03:35:34.484Z,10.26
2023-05-11T03:37:39.207Z,10.87
2023-05-11T03:39:47.049Z,10.87
2023-05-11T03:41:51.861Z,10.88
2023-05-11T03:44:01.074Z,10.89
2023-05-11T03:46:05.968Z,10.93
2023-05-11T03:48:11.073Z,10.86
2023-05-11T03:50:15.551Z,10.76
2023-05-11T03:52:20.917Z,10.83
2023-05-11T03:54:24.592Z,10.89
2023-05-11T03:56:28.038Z,10.92
2023-05-11T03:58:31.730Z,10.79
2023-05-11T04:00:39.235Z,10.86
2023-05-11T04:02:42.617Z,10.72
2023-05-11T04:04:47.611Z,10.50
2023-05-11T04:06:52.603Z,10.79
2023-05-11T04:08:58.384Z,10.36
2023-05-11T04:11:01.364Z,10.63
2023-05-11T04:13:04.484Z,10.66
2023-05-11T04:15:08.659Z,10.68
2023-05-11T04:17:13.130Z,10.62
2023-05-11T04:19:16.703Z,10.62
2023-05-11T04:21:19.669Z,10.68
2023-05-11T04:23:23.826Z,10.68
2023-05-11T04:25:27.604Z,10.76
2023-05-11T04:27:33.937Z,10.82
2023-05-11T04:29:37.112Z,10.89
2023-05-11T04:31:40.257Z,10.94
2023-05-11T04:33:45.349Z,10.39
2023-05-11T04:35:51.001Z,11.00
2023-05-11T04:37:54.179Z,10.81
2023-05-11T04:39:58.010Z,10.63
2023-05-11T04:42:01.971Z,10.59
2023-05-11T04:44:06.016Z,10.62
2023-05-11T04:46:09.041Z,10.78
2023-05-11T04:48:12.211Z,10.66
2023-05-11T04:50:17.146Z,10.79
2023-05-11T04:52:21.017Z,10.93
2023-05-11T04:54:26.028Z,11.03
2023-05-11T04:56:29.092Z,11.00
2023-05-11T04:58:32.127Z,11.04
2023-05-11T05:00:36.543Z,11.11
2023-05-11T05:02:39.640Z,11.02
2023-05-11T05:04:42.673Z,10.94
2023-05-11T05:06:47.128Z,10.70
2023-05-11T05:08:52.035Z,11.08
2023-05-11T05:10:56.350Z,11.06
2023-05-11T05:13:00.073Z,11.08
2023-05-11T05:15:03.343Z,10.99
2023-05-11T05:17:06.562Z,11.11
2023-05-11T05:19:12.773Z,11.10
2023-05-11T05:21:16.465Z,11.21
2023-05-11T05:23:22.473Z,11.25
2023-05-11T05:25:26.026Z,10.57
2023-05-11T05:27:29.254Z,11.26
2023-05-11T05:29:33.370Z,10.93
2023-05-11T05:31:36.407Z,11.00
2023-05-11T05:33:39.723Z,11.16
2023-05-11T05:35:44.084Z,11.03
2023-05-11T05:37:48.087Z,11.15
2023-05-11T05:39:52.807Z,11.05
2023-05-11T05:41:56.304Z,11.18
2023-05-11T05:44:00.446Z,11.13
2023-05-11T05:46:03.535Z,11.24
2023-05-11T05:48:07.577Z,11.40
2023-05-11T05:50:11.906Z,11.19
2023-05-11T05:52:17.320Z,11.40
2023-05-11T05:54:22.887Z,11.33
2023-05-11T05:56:27.583Z,11.33
2023-05-11T05:58:30.569Z,11.25
2023-05-11T06:00:33.727Z,11.21
2023-05-11T06:02:41.455Z,11.32
2023-05-11T06:04:48.770Z,11.44
2023-05-11T06:06:52.055Z,11.55
2023-05-11T06:08:55.082Z,11.42
2023-05-11T06:10:58.114Z,11.34
2023-05-11T06:13:02.460Z,11.06
2023-05-11T06:15:06.665Z,11.10
2023-05-11T06:17:12.725Z,11.59
2023-05-11T06:19:15.797Z,11.75
2023-05-11T06:21:19.050Z,11.71
2023-05-11T06:23:22.304Z,11.57
2023-05-11T06:25:25.311Z,11.65
2023-05-11T06:27:28.349Z,11.62
2023-05-11T06:29:34.832Z,11.76
2023-05-11T06:31:39.788Z,11.87
2023-05-11T06:33:43.810Z,11.92
2023-05-11T06:35:55.694Z,11.84
2023-05-11T06:37:58.805Z,11.48
2023-05-11T06:40:02.310Z,11.80
2023-05-11T06:42:06.726Z,11.88
2023-05-11T06:44:10.479Z,11.33
2023-05-11T06:46:17.909Z,11.68
2023-05-11T06:48:23.371Z,11.88
2023-05-11T06:50:27.807Z,11.65
2023-05-11T06:52:31.160Z,11.70
2023-05-11T06:54:37.265Z,11.60
2023-05-11T06:56:40.329Z,11.84
2023-05-11T06:58:44.672Z,12.14
2023-05-11T07:00:47.910Z,11.85
2023-05-11T07:02:52.862Z,12.13
2023-05-11T07:04:56.054Z,12.24
2023-05-11T07:06:59.147Z,12.23
2023-05-11T07:09:03.572Z,12.36
2023-05-11T07:11:06.700Z,12.55
2023-05-11T07:13:09.798Z,12.59
2023-05-11T07:15:13.118Z,12.44
2023-05-11T07:17:16.134Z,12.45
2023-05-11T07:19:20.485Z,12.59
2023-05-11T07:21:23.528Z,12.81
2023-05-11T07:23:26.595Z,12.94
2023-05-11T07:25:29.662Z,12.54
2023-05-11T07:27:33.090Z,12.62
2023-05-11T07:29:36.268Z,12.12
2023-05-11T07:31:39.478Z,12.42
2023-05-11T07:33:42.685Z,13.07
2023-05-11T07:35:47.279Z,13.13
2023-05-11T07:37:50.472Z,13.15
2023-05-11T07:39:54.446Z,13.00
2023-05-11T07:41:57.695Z,12.79
2023-05-11T07:44:02.192Z,12.56
2023-05-11T07:46:05.699Z,12.76
2023-05-11T07:48:09.171Z,12.60
2023-05-11T07:50:12.752Z,12.66
2023-05-11T07:52:17.372Z,12.85
2023-05-11T07:54:21.850Z,12.87
2023-05-11T07:56:25.233Z,12.94
2023-05-11T07:58:28.487Z,12.98
2023-05-11T08:00:31.773Z,13.02
2023-05-11T08:02:35.139Z,13.10
2023-05-11T08:04:38.589Z,13.07
2023-05-11T08:06:41.810Z,13.08
2023-05-11T08:08:46.405Z,12.72
2023-05-11T08:10:49.679Z,12.83
2023-05-11T08:12:52.906Z,13.15
2023-05-11T08:14:56.517Z,13.30
2023-05-11T08:16:59.802Z,13.10
2023-05-11T08:19:03.222Z,12.78
2023-05-11T08:21:07.560Z,12.97
2023-05-11T08:23:17.160Z,12.56
2023-05-11T08:25:21.834Z,12.51
2023-05-11T08:27:25.043Z,12.57
2023-05-11T08:29:28.454Z,12.36
2023-05-11T08:31:31.934Z,12.47
2023-05-11T08:33:38.032Z,12.77
2023-05-11T08:35:42.171Z,12.15
2023-05-11T08:37:45.389Z,12.08
2023-05-11T08:39:48.608Z,11.69
2023-05-11T08:41:54.472Z,11.52
2023-05-11T08:43:59.195Z,11.02
2023-05-11T08:46:05.149Z,10.63
2023-05-11T08:48:08.774Z,11.48
2023-05-11T08:50:12.344Z,11.43
2023-05-11T08:52:17.976Z,11.02
2023-05-11T08:54:21.150Z,11.19
2023-05-11T08:56:25.788Z,11.51
2023-05-11T08:58:32.121Z,11.51
2023-05-11T09:00:36.115Z,12.01
2023-05-11T09:02:40.173Z,11.56
2023-05-11T09:04:46.082Z,11.85
2023-05-11T09:06:51.384Z,12.07
2023-05-11T09:08:54.977Z,12.14
2023-05-11T09:10:58.521Z,12.43
2023-05-11T09:13:01.710Z,12.19
2023-05-11T09:15:07.369Z,12.25
2023-05-11T09:17:10.658Z,12.34
2023-05-11T09:19:16.918Z,12.43
2023-05-11T09:21:20.928Z,12.34
2023-05-11T09:23:27.773Z,12.72
2023-05-11T09:25:35.046Z,12.48
2023-05-11T09:27:42.565Z,11.85
2023-05-11T09:29:52.044Z,12.26
2023-05-11T09:31:57.937Z,12.09
2023-05-11T09:34:11.312Z,12.53
2023-05-11T09:36:25.005Z,12.86
2023-05-11T09:38:28.303Z,12.29
2023-05-11T09:40:34.583Z,12.31
2023-05-11T09:42:38.351Z,12.87
2023-05-11T09:44:42.601Z,13.17
2023-05-11T09:46:47.698Z,13.53
2023-05-11T09:49:00.032Z,13.29
2023-05-11T09:51:05.220Z,12.84
2023-05-11T09:53:08.527Z,13.71
2023-05-11T09:55:12.203Z,14.01
2023-05-11T09:57:25.187Z,13.96
2023-05-11T09:59:40.217Z,13.53
2023-05-11T10:01:43.485Z,13.60
2023-05-11T10:04:00.269Z,13.78
2023-05-11T10:06:10.816Z,13.86
2023-05-11T10:08:14.170Z,13.03
2023-05-11T10:10:18.640Z,13.00
2023-05-11T10:12:24.080Z,13.65
2023-05-11T10:14:29.577Z,13.73
2023-05-11T10:16:33.135Z,13.80
2023-05-11T10:18:38.453Z,13.92
2023-05-11T10:20:42.273Z,13.55
2023-05-11T10:22:47.492Z,13.19
2023-05-11T10:24:51.692Z,13.49
2023-05-11T10:26:57.708Z,12.99
2023-05-11T10:29:01.869Z,13.43
2023-05-11T10:31:05.736Z,13.37
2023-05-11T10:33:09.755Z,12.71
2023-05-11T10:35:13.278Z,13.90
2023-05-11T10:37:17.039Z,14.04
2023-05-11T10:39:22.175Z,13.91
2023-05-11T10:41:49.163Z,13.77
2023-05-11T10:44:10.446Z,13.99
2023-05-11T10:46:30.453Z,13.78
2023-05-11T10:49:19.172Z,13.98
2023-05-11T10:51:34.659Z,13.47
2023-05-11T10:53:59.051Z,12.92
2023-05-11T10:56:39.905Z,12.87
2023-05-11T10:59:12.170Z,13.41
2023-05-11T11:01:39.469Z,13.54
2023-05-11T11:03:42.821Z,13.51
2023-05-11T11:05:48.240Z,13.73
2023-05-11T11:08:03.876Z,14.20
2023-05-11T11:10:09.206Z,14.37
2023-05-11T11:12:14.522Z,14.58
2023-05-11T11:14:19.274Z,14.73
2023-05-11T11:16:25.109Z,14.86
2023-05-11T11:18:29.634Z,14.22
2023-05-11T11:20:48.852Z,14.57
2023-05-11T11:22:52.076Z,14.25
2023-05-11T11:24:55.325Z,13.58
2023-05-11T11:26:58.521Z,13.28
2023-05-11T11:29:13.014Z,13.43
2023-05-11T11:31:26.366Z,12.85
2023-05-11T11:33:34.825Z,12.28
2023-05-11T11:35:48.902Z,12.63
2023-05-11T11:38:02.226Z,12.30
2023-05-11T11:40:14.894Z,12.75
2023-05-11T11:42:20.414Z,12.83
2023-05-11T11:44:25.016Z,12.75
2023-05-11T11:46:29.909Z,13.07
2023-05-11T11:48:35.497Z,13.57
2023-05-11T11:50:40.068Z,13.23
2023-05-11T11:52:43.226Z,13.06
2023-05-11T11:54:47.251Z,12.22
2023-05-11T11:56:50.550Z,12.16
2023-05-11T11:59:00.982Z,13.60
2023-05-11T12:01:05.987Z,13.24
2023-05-11T12:03:11.546Z,13.68
2023-05-11T12:05:18.792Z,14.13
2023-05-11T12:07:22.751Z,14.25
2023-05-11T12:09:26.890Z,14.27
2023-05-11T12:11:31.124Z,14.24
2023-05-11T12:13:35.327Z,14.08
2023-05-11T12:15:38.723Z,14.69
2023-05-11T12:17:43.370Z,14.52
2023-05-11T12:19:46.905Z,14.62
2023-05-11T12:21:50.122Z,14.93
2023-05-11T12:23:54.841Z,14.90
2023-05-11T12:26:04.848Z,15.08
2023-05-11T12:28:08.061Z,15.32
2023-05-11T12:30:20.857Z,15.39
2023-05-11T12:32:28.772Z,15.16
2023-05-11T12:34:33.426Z,15.29
2023-05-11T12:36:37.616Z,15.62
2023-05-11T12:38:44.917Z,15.89
2023-05-11T12:40:50.019Z,15.97
2023-05-11T12:42:53.769Z,15.94
2023-05-11T12:44:57.457Z,15.81
2023-05-11T12:47:00.832Z,15.69
2023-05-11T12:49:04.431Z,16.18
2023-05-11T12:51:09.003Z,15.90
2023-05-11T12:53:16.140Z,15.02
2023-05-11T12:55:28.838Z,15.11
2023-05-11T12:57:33.620Z,15.32
2023-05-11T12:59:38.556Z,15.69
2023-05-11T13:01:41.835Z,15.97
2023-05-11T13:03:48.360Z,16.21
2023-05-11T13:05:52.354Z,16.18
2023-05-11T13:08:03.499Z,15.99
2023-05-11T13:10:07.713Z,16.12
2023-05-11T13:12:20.935Z,16.47
2023-05-11T13:14:24.104Z,16.13
2023-05-11T13:16:28.709Z,16.24
2023-05-11T13:18:32.184Z,16.10
2023-05-11T13:20:35.718Z,16.24
2023-05-11T13:22:39.026Z,16.48
2023-05-11T13:24:43.632Z,16.40
2023-05-11T13:26:46.810Z,15.47
2023-05-11T13:29:01.936Z,16.06
2023-05-11T13:31:12.500Z,15.70
2023-05-11T13:33:15.977Z,16.07
2023-05-11T13:35:19.471Z,15.93
2023-05-11T13:37:22.857Z,16.01
2023-05-11T13:39:26.022Z,15.70
2023-05-11T13:41:30.593Z,15.75
2023-05-11T13:43:33.841Z,16.01
2023-05-11T13:45:40.158Z,15.83
2023-05-11T13:47:45.502Z,16.16
2023-05-11T13:49:49.036Z,16.03
2023-05-11T13:51:52.663Z,16.11
2023-05-11T13:53:55.979Z,16.36
2023-05-11T13:55:59.370Z,16.41
2023-05-11T13:58:03.902Z,16.44
2023-05-11T14:00:08.289Z,16.48
2023-05-11T14:02:14.694Z,16.07
2023-05-11T14:04:17.874Z,16.33
2023-05-11T14:06:24.075Z,16.09
2023-05-11T14:08:27.907Z,16.13
2023-05-11T14:10:31.060Z,16.28
2023-05-11T14:12:34.286Z,15.94
2023-05-11T14:14:39.047Z,15.20
2023-05-11T14:16:42.342Z,15.78
2023-05-11T14:18:45.800Z,15.65
2023-05-11T14:20:49.090Z,15.48
2023-05-11T14:22:52.437Z,16.19
2023-05-11T14:24:55.671Z,16.63
2023-05-11T14:26:59.306Z,16.67
2023-05-11T14:29:02.490Z,16.70
2023-05-11T14:31:07.784Z,16.58
2023-05-11T14:33:11.001Z,15.43
2023-05-11T14:35:14.293Z,15.60
2023-05-11T14:37:17.506Z,15.92
2023-05-11T14:39:20.775Z,15.89
2023-05-11T14:41:24.005Z,15.74
2023-05-11T14:43:27.324Z,15.38
2023-05-11T14:45:30.549Z,15.25
2023-05-11T14:47:35.266Z,15.48
2023-05-11T14:49:38.465Z,15.24
2023-05-11T14:51:41.676Z,15.44
2023-05-11T14:53:45.133Z,15.88
2023-05-11T14:55:48.338Z,16.33
2023-05-11T14:57:51.598Z,17.12
2023-05-11T15:00:00.137Z,16.97
2023-05-11T15:02:03.931Z,17.17
2023-05-11T15:04:08.731Z,17.61
2023-05-11T15:06:11.900Z,17.19
2023-05-11T15:08:28.457Z,16.70
2023-05-11T15:10:32.661Z,16.91
2023-05-11T15:12:35.843Z,17.63
2023-05-11T15:14:39.102Z,18.44
2023-05-11T15:16:42.367Z,19.21
2023-05-11T15:18:48.426Z,19.75
2023-05-11T15:20:53.058Z,19.85
2023-05-11T15:22:56.401Z,20.21
2023-05-11T15:24:59.558Z,20.36
2023-05-11T15:27:02.697Z,19.94
2023-05-11T15:29:05.813Z,20.07
2023-05-11T15:31:08.944Z,18.94
2023-05-11T15:33:12.272Z,18.63
2023-05-11T15:35:16.991Z,19.30
2023-05-11T15:37:21.850Z,18.98
2023-05-11T15:39:25.121Z,19.21
2023-05-11T15:41:28.251Z,20.13
2023-05-11T15:43:31.356Z,19.70
2023-05-11T15:45:34.582Z,19.33
2023-05-11T15:47:38.084Z,19.74
2023-05-11T15:49:41.866Z,18.87
2023-05-11T15:51:45.008Z,19.99
2023-05-11T15:53:49.511Z,20.20
2023-05-11T15:55:55.483Z,18.82
2023-05-11T15:57:58.866Z,18.46
2023-05-11T16:00:02.011Z,17.92
2023-05-11T16:02:10.881Z,18.41
2023-05-11T16:04:14.462Z,18.76
2023-05-11T16:06:17.669Z,18.17
2023-05-11T16:08:20.793Z,18.43
2023-05-11T16:10:25.490Z,18.57
2023-05-11T16:12:28.663Z,18.05
2023-05-11T16:14:32.139Z,17.78
2023-05-11T16:16:35.411Z,19.04
2023-05-11T16:18:39.554Z,19.36
2023-05-11T16:20:42.824Z,18.57
2023-05-11T16:22:47.642Z,18.44
2023-05-11T16:24:51.166Z,18.48
2023-05-11T16:26:55.764Z,17.80
2023-05-11T16:28:58.976Z,18.25
2023-05-11T16:31:02.199Z,18.79
2023-05-11T16:33:05.573Z,18.78
2023-05-11T16:35:09.514Z,19.53
2023-05-11T16:37:12.691Z,19.62
2023-05-11T16:39:15.887Z,20.04
2023-05-11T16:41:19.144Z,19.82
2023-05-11T16:43:23.716Z,19.43
2023-05-11T16:45:26.935Z,18.41
2023-05-11T16:47:30.166Z,18.57
2023-05-11T16:49:33.578Z,19.08
2023-05-11T16:51:36.797Z,19.48
2023-05-11T16:53:40.108Z,19.87
2023-05-11T16:55:43.325Z,19.05
2023-05-11T16:57:46.516Z,18.88
2023-05-11T16:59:51.115Z,18.47
2023-05-11T17:01:54.331Z,18.46
2023-05-11T17:03:57.670Z,18.21
2023-05-11T17:06:00.971Z,18.46
2023-05-11T17:08:04.345Z,17.97
2023-05-11T17:10:08.684Z,18.57
2023-05-11T17:12:12.133Z,18.46
2023-05-11T17:14:15.393Z,18.28
2023-05-11T17:16:20.114Z,17.87
2023-05-11T17:18:23.892Z,17.78
2023-05-11T17:20:27.168Z,17.54
2023-05-11T17:22:30.556Z,17.53
2023-05-11T17:24:33.944Z,17.87
2023-05-11T17:26:46.997Z,18.08
2023-05-11T17:28:50.884Z,18.06
2023-05-11T17:30:54.201Z,19.38
2023-05-11T17:32:59.037Z,20.13
2023-05-11T17:35:03.575Z,19.82
2023-05-11T17:37:06.926Z,19.12
2023-05-11T17:39:10.984Z,18.62
2023-05-11T17:41:14.618Z,19.36
2023-05-11T17:43:17.793Z,20.09
2023-05-11T17:45:21.210Z,20.44
2023-05-11T17:47:24.585Z,19.97
2023-05-11T17:49:29.207Z,18.36
2023-05-11T17:51:32.961Z,17.47
2023-05-11T17:53:36.167Z,16.75
2023-05-11T17:55:40.415Z,15.87
2023-05-11T17:57:43.612Z,15.02
2023-05-11T17:59:47.230Z,15.02
2023-05-11T18:01:50.497Z,14.24
2023-05-11T18:03:53.848Z,14.95
2023-05-11T18:05:58.699Z,14.24
2023-05-11T18:08:02.933Z,14.42
2023-05-11T18:10:07.145Z,14.58
2023-05-11T18:12:11.097Z,14.62
2023-05-11T18:14:14.344Z,14.76
2023-05-11T18:16:18.820Z,14.38
2023-05-11T18:18:22.778Z,14.25
2023-05-11T18:20:27.470Z,13.80
2023-05-11T18:22:32.055Z,14.42
2023-05-11T18:24:35.224Z,14.42
2023-05-11T18:26:38.414Z,14.31
2023-05-11T18:28:41.889Z,14.21
2023-05-11T18:30:45.042Z,14.02
2023-05-11T18:32:48.240Z,13.75
2023-05-11T18:34:51.365Z,13.86
2023-05-11T18:36:54.581Z,13.86
2023-05-11T18:38:59.110Z,13.72
2023-05-11T18:41:05.616Z,13.46
2023-05-11T18:43:09.080Z,12.50
2023-05-11T18:45:12.485Z,13.52
2023-05-11T18:47:15.694Z,13.36
2023-05-11T18:49:18.882Z,13.57
2023-05-11T18:51:22.959Z,13.40
2023-05-11T18:53:26.695Z,13.24
2023-05-11T18:55:38.153Z,12.95
2023-05-11T18:57:48.643Z,12.92
2023-05-11T18:59:52.933Z,12.91
2023-05-11T19:01:56.257Z,12.89
2023-05-11T19:03:59.529Z,12.92
2023-05-11T19:06:02.811Z,12.74
2023-05-11T19:08:06.274Z,12.69
2023-05-11T19:10:10.464Z,12.77
2023-05-11T19:12:17.538Z,12.93
2023-05-11T19:14:20.697Z,13.05
2023-05-11T19:16:23.987Z,13.18
2023-05-11T19:18:28.970Z,12.80
2023-05-11T19:20:32.234Z,13.23
2023-05-11T19:22:35.413Z,13.28
2023-05-11T19:24:38.584Z,13.14
2023-05-11T19:26:43.892Z,12.15
2023-05-11T19:28:50.065Z,12.76
2023-05-11T19:31:01.801Z,12.76
2023-05-11T19:33:05.124Z,12.65
2023-05-11T19:35:08.977Z,12.64
2023-05-11T19:37:12.205Z,12.83
2023-05-11T19:39:16.274Z,12.62
2023-05-11T19:41:19.478Z,12.75
2023-05-11T19:43:23.662Z,12.75
2023-05-11T19:45:31.447Z,12.55
2023-05-11T19:47:34.634Z,12.41
2023-05-11T19:49:37.946Z,12.63
2023-05-11T19:51:41.165Z,12.69
2023-05-11T19:53:44.817Z,12.76
2023-05-11T19:55:48.398Z,12.70
2023-05-11T19:57:52.534Z,12.12
2023-05-11T19:59:55.746Z,12.37
2023-05-11T20:02:01.027Z,12.07
2023-05-11T20:04:04.558Z,12.31
2023-05-11T20:06:08.334Z,11.81
2023-05-11T20:08:11.606Z,11.99
2023-05-11T20:10:14.909Z,12.16
2023-05-11T20:12:18.132Z,12.29
2023-05-11T20:14:21.369Z,11.73
2023-05-11T20:16:24.569Z,12.22
2023-05-11T20:18:29.185Z,12.24
2023-05-11T20:20:33.123Z,12.12
2023-05-11T20:22:36.464Z,11.88
2023-05-11T20:24:39.616Z,12.17
2023-05-11T20:26:42.927Z,12.03
2023-05-11T20:28:46.092Z,12.08
2023-05-11T20:30:49.240Z,12.07
2023-05-11T20:35:00.046Z,11.66
2023-05-11T20:37:03.199Z,11.75
2023-05-11T20:39:07.315Z,11.86
2023-05-11T20:41:10.473Z,11.53
2023-05-11T20:43:14.818Z,11.68
2023-05-11T20:45:18.517Z,11.56
2023-05-11T20:47:22.042Z,11.43
2023-05-11T20:49:38.071Z,10.49
2023-05-11T20:51:44.384Z,11.49
2023-05-11T20:53:47.382Z,11.39
2023-05-11T20:55:50.986Z,11.35
2023-05-11T20:57:53.984Z,11.47
2023-05-11T21:02:02.954Z,11.57
2023-05-11T21:04:06.338Z,11.27
2023-05-11T21:06:09.807Z,11.33
2023-05-11T21:08:15.142Z,11.34
2023-05-11T21:10:18.829Z,11.28
2023-05-11T21:12:22.395Z,11.25
2023-05-11T21:14:25.463Z,10.99
2023-05-11T21:16:28.501Z,11.01
2023-05-11T21:18:34.393Z,11.17
2023-05-11T21:20:37.640Z,10.77
2023-05-11T21:22:40.658Z,11.08
2023-05-11T21:24:45.050Z,10.62
2023-05-11T21:26:48.400Z,11.04
2023-05-11T21:28:51.749Z,10.36
2023-05-11T21:30:54.970Z,10.03
2023-05-11T21:32:58.033Z,9.73
2023-05-11T21:35:01.300Z,9.31
2023-05-11T21:37:04.389Z,10.11
2023-05-11T21:39:07.360Z,10.22
2023-05-11T21:41:12.212Z,9.91
2023-05-11T21:43:15.240Z,10.40
2023-05-11T21:45:19.833Z,10.27
2023-05-11T21:47:23.274Z,10.31
2023-05-11T21:49:26.326Z,10.39
2023-05-11T21:51:29.315Z,10.22
2023-05-11T21:53:32.218Z,10.15
2023-05-11T21:55:35.167Z,10.26
2023-05-11T21:57:39.569Z,10.48
2023-05-11T21:59:42.587Z,10.59
2023-05-11T22:01:45.655Z,10.66
2023-05-11T22:03:48.736Z,10.68
2023-05-11T22:05:51.981Z,10.67
2023-05-11T22:08:03.271Z,10.80
2023-05-11T22:10:13.853Z,10.85
2023-05-11T22:12:16.991Z,10.71
2023-05-11T22:14:24.132Z,10.84
2023-05-11T22:16:27.260Z,10.89
2023-05-11T22:18:30.449Z,10.95
2023-05-11T22:20:33.467Z,10.76
2023-05-11T22:22:36.969Z,10.62
2023-05-11T22:24:39.986Z,10.91
2023-05-11T22:26:42.920Z,10.86
2023-05-11T22:28:45.923Z,10.89
2023-05-11T22:30:50.274Z,10.90
2023-05-11T22:32:53.272Z,10.85
2023-05-11T22:34:59.462Z,10.43
2023-05-11T22:37:03.580Z,10.50
2023-05-11T22:39:06.699Z,10.46
2023-05-11T22:41:09.734Z,10.55
2023-05-11T22:43:12.721Z,10.40
2023-05-11T22:45:16.622Z,10.79
2023-05-11T22:47:21.029Z,10.89
2023-05-11T22:49:24.142Z,10.97
2023-05-11T22:51:27.183Z,11.03
2023-05-11T22:53:30.816Z,11.07
2023-05-11T22:55:35.032Z,11.13
2023-05-11T22:57:38.049Z,10.87
2023-05-11T22:59:41.145Z,10.93
2023-05-11T23:01:44.269Z,11.04
2023-05-11T23:03:48.710Z,11.13
2023-05-11T23:05:52.040Z,10.48
2023-05-11T23:07:57.914Z,10.33
2023-05-11T23:10:00.935Z,10.25
2023-05-11T23:12:04.616Z,10.39
2023-05-11T23:14:07.645Z,10.52
2023-05-11T23:16:10.808Z,10.66
2023-05-11T23:18:13.933Z,10.62
2023-05-11T23:20:18.787Z,10.78
2023-05-11T23:22:22.105Z,10.81
2023-05-11T23:24:25.119Z,10.40
2023-05-11T23:26:28.129Z,10.55
2023-05-11T23:28:31.360Z,10.38
2023-05-11T23:30:34.397Z,10.32
2023-05-11T23:32:37.463Z,10.50
2023-05-11T23:34:40.575Z,10.50
2023-05-11T23:36:44.952Z,10.46
2023-05-11T23:38:48.040Z,10.59
2023-05-11T23:40:51.144Z,10.61
2023-05-11T23:42:54.169Z,10.51
2023-05-11T23:44:57.320Z,9.56
2023-05-11T23:47:00.419Z,10.39
2023-05-11T23:49:03.520Z,10.50
2023-05-11T23:51:06.638Z,10.67
2023-05-11T23:53:11.080Z,10.81
2023-05-11T23:55:14.074Z,10.68
2023-05-11T23:57:17.181Z,10.18
2023-05-11T23:59:20.187Z,10.17
